• Join FlightAware (Why Join?)
  • Login
  • US Flag 
09:13AM EDT


 

Airport Tracker/Info


-or-


 

Live Flight TrackerFlight Track Log ✈ EJA951 ✈ 21-Mar-2014 ✈ KIND - KCMH

Flight Track Log - Related Links

Times and Time Zones

All times are in EDT time to prevent confusion due to time zone crossing. See the EJA951 flight status page for this flight to view local times or setup timezone preferences in your user account.

Time Position Orientation Groundspeed Altitude Reporting Facility
EDT Latitude Longitude Course Direction KTS MPH feet Rate Location/Type
04:18PM 39.7000 -86.3000 191° South 156 180 1,600  Level Indianapolis TRACON
04:19PM 39.6333 -86.3167 191° South 269 310 5,800 3,540 Climbing Indianapolis TRACON
04:20PM 39.6333 -86.2000 90° East 331 381 10,200 3,480 Climbing Indianapolis TRACON
04:21PM 39.6667 -86.0833 70° East 344 396 12,900 1,560 Climbing Indianapolis TRACON
04:23PM 39.7111 -85.9036 72° East 383 441 14,100 1,080 Climbing Indianapolis Center
04:24PM 39.7497 -85.7603 71° East 413 475 15,700 1,320 Climbing Indianapolis Center
04:25PM 39.7906 -85.6050 71° East 447 514 16,900 600 Climbing Indianapolis Center
04:26PM 39.8342 -85.4478 70° East 462 532 17,000  Climbing Indianapolis Center
04:27PM 39.8767 -85.3067 69° East 428 493 17,000  Level Indianapolis Center
04:28PM 39.9286 -85.1308 69° East 430 495 17,100  Climbing Indianapolis Center
04:29PM 39.9708 -84.9825 70° East 433 498 17,100  Level Indianapolis Center
04:30PM 40.0089 -84.8472 70° East 434 499 17,100 -60 Level Indianapolis Center
04:31PM 40.0528 -84.6992 69° East 434 499 17,000  Descending Indianapolis Center
04:32PM 40.1022 -84.5197 70° East 435 501 17,100  Climbing Indianapolis Center
04:33PM 40.1453 -84.3731 69° East 435 501 17,000  Descending Indianapolis Center
04:34PM 40.1853 -84.2286 70° East 428 493 17,100  Climbing Indianapolis Center
04:35PM 40.2250 -84.0839 70° East 425 489 17,100  Level Indianapolis Center
04:36PM 40.2658 -83.9406 69° East 421 484 17,100 -60 Level Indianapolis Center
04:37PM 40.3047 -83.7969 70° East 421 484 17,000 -900 Descending Indianapolis Center
04:38PM 40.3294 -83.7094 70° East 422 486 15,800 -2,460 Descending Indianapolis Center
04:38PM 40.3533 -83.6225 70° East 421 484 14,500 -2,100 Descending Indianapolis Center
04:38PM 40.3567 -83.6069 74° East 423 487 14,300 -480 Descending Indianapolis Center
04:39PM 40.3964 -83.4625 70° East 392 451 14,000 -960 Descending Indianapolis Center
04:40PM 40.4064 -83.3461 84° East 404 465 12,500 -1,800 Descending Indianapolis Center
04:40PM 40.3936 -83.3192 122° Southeast 383 441 12,000 -1,500 Descending Indianapolis Center
04:41PM 40.3597 -83.2211 114° Southeast 386 444 11,000 -1,260 Descending Indianapolis Center
04:42PM 40.3353 -83.1831 130° Southeast 352 405 10,600 -1,080 Descending Indianapolis Center
04:42PM 40.2964 -83.1219 130° Southeast 358 412 9,900 -1,020 Descending Indianapolis Center
04:43PM 40.2750 -83.0881 130° Southeast 324 373 9,600 -1,260 Descending Indianapolis Center
04:43PM 40.2419 -83.0331 128° Southeast 329 379 8,600 -1,620 Descending Indianapolis Center
04:44PM 40.2244 -83.0031 127° Southeast 294 338 8,000 -1,560 Descending Indianapolis Center
04:44PM 40.1933 -82.9483 127° Southeast 303 349 7,000 -1,620 Descending Indianapolis Center
04:45PM 40.1756 -82.9186 128° Southeast 280 322 6,400 -1,200 Descending Indianapolis Center
04:45PM 40.1392 -82.8519 126° Southeast 281 323 5,800 -840 Descending Indianapolis Center
04:46PM 40.1306 -82.8403 134° Southeast 267 307 5,600 -1,260 Descending Indianapolis Center
04:46PM 40.0956 -82.7767 126° Southeast 268 308 4,500 -1,320 Descending Indianapolis Center
04:47PM 40.0894 -82.7625 119° Southeast 254 292 4,300 -1,260 Descending Indianapolis Center
04:47PM 40.0614 -82.6997 120° Southeast 258 297 3,200 -1,320 Descending Indianapolis Center
04:48PM 40.0556 -82.6972 162° South 237 273 3,100 -240 Descending Indianapolis Center
04:49PM 40.0097 -82.7147 196° South 231 266 3,000 -120 Descending Indianapolis Center
04:49PM 40.0042 -82.7328 248° West 190 219 3,000 -600 Level Indianapolis Center
04:50PM 39.9942 -82.7828 255° West 210 242 2,400 -1,020 Descending Indianapolis Center
04:50PM 39.9956 -82.7997 276° West 186 214 2,000 -1,020 Descending Indianapolis Center
04:51PM 39.9994 -82.8494 276° West 130 150 1,400 -420 Descending Indianapolis Center
04:52PM 40.0031 -82.8981 276° West 164 189 1,200 -240 Descending Indianapolis Center